createdAt,value
2023-03-20T00:03:33.007Z,0.5
2023-03-20T00:09:26.973Z,0.4
2023-03-20T00:15:05.061Z,0.4
2023-03-20T00:20:57.436Z,0.3
2023-03-20T00:26:35.520Z,0.2
2023-03-20T00:32:27.603Z,0.1
2023-03-20T00:38:04.862Z,0
2023-03-20T00:43:42.488Z,0
2023-03-20T00:49:19.854Z,-0.1
2023-03-20T00:54:57.793Z,-0.1
2023-03-20T01:00:50.242Z,-0.2
2023-03-20T01:06:43.204Z,-0.3
2023-03-20T01:12:35.812Z,-0.3
2023-03-20T01:17:58.394Z,-0.3
2023-03-20T01:23:49.354Z,-0.4
2023-03-20T01:29:27.729Z,-0.4
2023-03-20T01:35:20.256Z,-0.5
2023-03-20T01:41:13.677Z,-0.6
2023-03-20T01:47:05.744Z,-0.6
2023-03-20T01:52:58.282Z,-0.8
2023-03-20T01:58:34.355Z,-0.8
2023-03-20T02:04:27.025Z,-0.9
2023-03-20T02:10:04.847Z,-1
2023-03-20T02:15:41.371Z,-1.1
2023-03-20T02:21:03.569Z,-1.2
2023-03-20T02:26:56.264Z,-1.3
2023-03-20T02:32:49.164Z,-1.4
2023-03-20T02:38:27.820Z,-1.5
2023-03-20T02:44:21.341Z,-1.6
2023-03-20T02:50:14.422Z,-1.7
2023-03-20T02:55:52.198Z,-1.7
2023-03-20T03:01:45.006Z,-1.8
2023-03-20T03:07:21.827Z,-1.8
2023-03-20T03:12:43.460Z,-1.8
2023-03-20T03:23:58.872Z,-1.9
2023-03-20T03:29:45.080Z,-1.9
2023-03-20T03:35:38.687Z,-2
2023-03-20T03:41:15.245Z,-2.1
2023-03-20T03:46:52.717Z,-2.1
2023-03-20T03:52:29.586Z,-2.1
2023-03-20T03:58:06.732Z,-2.2
2023-03-20T04:03:44.122Z,-2.3
2023-03-20T04:09:39.645Z,-2.3
2023-03-20T04:15:19.118Z,-2.3
2023-03-20T04:20:56.478Z,-2.3
2023-03-20T04:26:34.348Z,-2.3
2023-03-20T04:32:30.049Z,-2.3
2023-03-20T04:38:22.431Z,-2.3
2023-03-20T04:44:01.537Z,-2.3
2023-03-20T04:49:37.452Z,-2.3
2023-03-20T04:55:29.246Z,-2.3
2023-03-20T05:01:06.806Z,-2.3
2023-03-20T05:07:02.933Z,-2.1
2023-03-20T05:12:55.812Z,-2
2023-03-20T05:18:33.893Z,-1.8
2023-03-20T05:24:25.736Z,-1.6
2023-03-20T05:30:17.955Z,-1.3
2023-03-20T05:36:13.806Z,-0.9
2023-03-20T05:42:06.761Z,-0.4
2023-03-20T05:47:43.812Z,0
2023-03-20T05:53:20.802Z,0.6
2023-03-20T05:59:16.570Z,1.4
2023-03-20T06:05:09.260Z,2.5
2023-03-20T06:11:01.953Z,3.8
2023-03-20T06:16:56.537Z,5.3
2023-03-20T06:22:49.750Z,6.9
2023-03-20T06:28:43.118Z,8.4
2023-03-20T06:34:36.386Z,9.9
2023-03-20T06:40:28.689Z,6.3
2023-03-20T06:52:12.414Z,29.2
2023-03-20T06:58:04.593Z,28.4
2023-03-20T07:03:57.408Z,38.5
2023-03-20T07:09:50.666Z,39.3
2023-03-20T07:15:54.030Z,41.1
2023-03-20T07:21:55.327Z,42.1
2023-03-20T07:28:00.446Z,43.1
2023-03-20T07:33:53.782Z,43.8
2023-03-20T07:39:48.028Z,44.4
2023-03-20T07:45:40.865Z,45.4
2023-03-20T07:51:35.779Z,46
2023-03-20T07:57:29.137Z,47.1
2023-03-20T08:03:21.158Z,48.1
2023-03-20T08:09:16.456Z,49
2023-03-20T08:15:10.280Z,50
2023-03-20T08:21:19.380Z,51.1
2023-03-20T08:33:01.256Z,53.1
2023-03-20T08:39:10.421Z,54.2
2023-03-20T08:45:02.806Z,55.2
2023-03-20T08:50:55.839Z,56.2
2023-03-20T08:56:48.449Z,57.2
2023-03-20T09:02:57.711Z,57.8
2023-03-20T09:14:03.540Z,59.3
2023-03-20T09:19:41.350Z,59.8
2023-03-20T09:25:18.942Z,60.5
2023-03-20T09:31:12.096Z,61.1
2023-03-20T09:36:52.578Z,61.7
2023-03-20T09:42:53.956Z,62.3
2023-03-20T09:49:03.393Z,63
2023-03-20T09:55:10.059Z,63.1
2023-03-20T10:01:03.022Z,63.7
2023-03-20T10:06:42.621Z,64.4
2023-03-20T10:12:35.975Z,64.9
2023-03-20T10:18:30.072Z,65.4
2023-03-20T10:24:20.825Z,66
2023-03-20T10:30:00.182Z,66.6
2023-03-20T10:35:54.437Z,67
2023-03-20T10:41:46.927Z,67.8
2023-03-20T10:47:40.369Z,68.2
2023-03-20T10:53:19.025Z,68.7
2023-03-20T11:04:33.781Z,69.7
2023-03-20T11:10:38.239Z,69.7
2023-03-20T11:16:33.468Z,69.9
2023-03-20T11:22:28.664Z,70.3
2023-03-20T11:28:24.490Z,70.8
2023-03-20T11:34:29.736Z,71.4
2023-03-20T11:40:35.282Z,71.8
2023-03-20T11:46:28.283Z,72.2
2023-03-20T11:52:21.252Z,72.6
2023-03-20T11:58:17.866Z,72.9
2023-03-20T12:04:12.294Z,73.2
2023-03-20T12:10:05.202Z,73.5
2023-03-20T12:15:57.964Z,73.8
2023-03-20T12:21:51.604Z,74
2023-03-20T12:27:44.425Z,74.2
2023-03-20T12:33:37.773Z,74.4
2023-03-20T12:39:32.046Z,74.1
2023-03-20T12:45:23.964Z,74.1
2023-03-20T12:50:48.720Z,74.1
2023-03-20T12:56:42.537Z,73.7
2023-03-20T13:02:34.858Z,73.3
2023-03-20T13:08:11.588Z,73.1
2023-03-20T13:14:04.886Z,73
2023-03-20T13:25:24.240Z,72.9
2023-03-20T13:31:17.967Z,72.6
2023-03-20T13:37:22.688Z,72.2
2023-03-20T13:43:15.729Z,71.6
2023-03-20T13:49:13.370Z,70.7
2023-03-20T13:55:06.788Z,69.8
2023-03-20T14:00:44.508Z,69
2023-03-20T14:06:07.119Z,68.3
2023-03-20T14:11:32.155Z,67.7
2023-03-20T14:16:54.251Z,67.1
2023-03-20T14:22:16.801Z,66.5
2023-03-20T14:27:57.066Z,65.9
2023-03-20T14:33:35.331Z,65.2
2023-03-20T14:39:12.952Z,64.6
2023-03-20T14:45:04.903Z,63.8
2023-03-20T14:51:00.983Z,63
2023-03-20T14:56:54.039Z,60.9
2023-03-20T15:02:45.318Z,57.6
2023-03-20T15:08:37.855Z,54.1
2023-03-20T15:14:32.874Z,51
2023-03-20T15:20:26.570Z,48.2
2023-03-20T15:26:20.596Z,45.6
2023-03-20T15:38:07.828Z,41.8
2023-03-20T15:44:13.907Z,40
2023-03-20T15:50:28.816Z,38.3
2023-03-20T15:56:17.124Z,36.9
2023-03-20T16:01:39.437Z,35.6
2023-03-20T16:07:35.840Z,34.2
2023-03-20T16:13:28.526Z,32.8
2023-03-20T16:19:21.727Z,31.3
2023-03-20T16:25:14.882Z,29.9
2023-03-20T16:31:08.741Z,28.6
2023-03-20T16:37:01.842Z,27.3
2023-03-20T16:42:55.188Z,26.1
2023-03-20T16:48:48.243Z,25
2023-03-20T16:54:40.786Z,23.9
2023-03-20T17:00:18.532Z,23
2023-03-20T17:05:39.980Z,22.2
2023-03-20T17:11:17.722Z,21.3
2023-03-20T17:17:11.552Z,20.6
2023-03-20T17:23:05.078Z,19.9
2023-03-20T17:28:58.115Z,19.3
2023-03-20T17:40:14.181Z,18.2
2023-03-20T17:46:07.754Z,17.7
2023-03-20T17:52:19.029Z,17.3
2023-03-20T17:57:56.882Z,16.9
2023-03-20T18:03:51.151Z,16.5
2023-03-20T18:09:45.061Z,16.2
2023-03-20T18:15:24.037Z,15.8
2023-03-20T18:21:17.288Z,15.4
2023-03-20T18:26:55.469Z,15.1
2023-03-20T18:32:31.652Z,14.8
2023-03-20T18:37:23.094Z,14.6
2023-03-20T18:42:45.481Z,14.3
2023-03-20T18:47:50.907Z,14
2023-03-20T18:53:13.933Z,13.8
2023-03-20T18:58:53.658Z,13.5
2023-03-20T19:04:46.509Z,13.2
2023-03-20T19:10:23.829Z,12.9
2023-03-20T19:15:47.481Z,12.7
2023-03-20T19:21:40.843Z,12.4
2023-03-20T19:27:48.048Z,12.1
2023-03-20T19:33:44.850Z,11.9
2023-03-20T19:41:00.089Z,11.6
2023-03-20T19:48:06.894Z,11.4
2023-03-20T20:06:39.809Z,10.9
2023-03-20T20:14:13.335Z,10.8
2023-03-20T20:20:11.010Z,10.7
2023-03-20T20:27:53.968Z,10.6
2023-03-20T20:34:07.087Z,10.5
2023-03-20T20:42:48.721Z,10.4
2023-03-20T20:48:58.281Z,10.3
2023-03-20T20:55:11.057Z,10.3
2023-03-20T21:01:28.763Z,10.2
2023-03-20T21:07:52.738Z,10.2
2023-03-20T21:14:10.011Z,10.1
2023-03-20T21:19:44.805Z,10.1
2023-03-20T21:26:18.734Z,10
2023-03-20T21:32:37.872Z,9.9
2023-03-20T21:40:10.582Z,9.9
2023-03-20T21:49:24.439Z,9.8
2023-03-20T22:05:09.705Z,9.6
2023-03-20T22:44:47.637Z,9.1
2023-03-20T22:51:32.728Z,9
2023-03-20T22:58:06.638Z,8.9
2023-03-20T23:04:07.680Z,8.9
2023-03-20T23:16:13.607Z,8.8
2023-03-20T23:27:56.526Z,8.6
2023-03-20T23:34:08.402Z,8.6
2023-03-20T23:40:17.025Z,8.5
2023-03-20T23:47:14.408Z,8.4
2023-03-20T23:53:59.136Z,8.4
